YM Masculinity — A8ZD2 — position and weather

sailwx.info

Track history (hours):
 
Tides and Currents Weather Stations Pressure Air Temp Water Temp Dewpoint Dewpoint Depression Visibility Wind Speed Wind Dir Waves Ship Positions

YM Masculinity

Last reported at 2017-Dec-11 20:28 UTC. Time now 2017-Dec-15 04:33 UTC.
Position N 38°37' W 124°13'.

Length 306 m; draft 10.8 m.

Type: Ship (hazmat cat A). MMSI: 636015183.

Date/timePositionNaut miles runAvg speedWind from/ knotsBaromVisibWave heightAir tempDewpointWater temp
2017-Dec-11 20:28N 38°37' W 124°13'817.7
2017-Dec-11 20:00N 38°32' W 124°05'917.6
2017-Dec-11 19:30N 38°27' W 123°55'917.7
2017-Dec-11 19:00N 38°23' W 123°45'917.5
2017-Dec-11 18:30N 38°18' W 123°36'612.3
2017-Dec-11 18:00N 38°14' W 123°30'611.6
2017-Dec-11 17:30N 38°11' W 123°24'713.5
2017-Dec-11 17:00N 38°07' W 123°17'714.0
2017-Dec-11 16:30N 38°01' W 123°12'713.9
2017-Dec-11 16:00N 37°57' W 123°05'713.9
2017-Dec-11 15:30N 37°53' W 122°57'714.2
2017-Dec-11 15:00N 37°50' W 122°49'713.8
2017-Dec-11 14:30N 37°46' W 122°42'611.8
2017-Dec-11 14:00N 37°47' W 122°34'713.5
2017-Dec-11 13:31N 37°50' W 122°27'5 9.1
2017-Dec-11 13:01N 37°48' W 122°22'3 5.5
2017-Dec-11 12:31N 37°48' W 122°19'1 2.1
2017-Dec-11 12:01N 37°48' W 122°17'1 1.8
2017-Dec-11 11:31N 37°48' W 122°18'0 0.8
2017-Dec-11 10:58N 37°48' W 122°19'0 0.0
2017-Dec-11 10:28N 37°48' W 122°19'0 0.0
2017-Dec-11 09:59N 37°48' W 122°19'0 0.0
2017-Dec-11 09:28N 37°48' W 122°19'0 0.0
2017-Dec-11 08:58N 37°48' W 122°19'0 0.0
2017-Dec-11 08:28N 37°48' W 122°19'0 0.0
2017-Dec-11 07:58N 37°48' W 122°19'0 0.0
2017-Dec-11 07:28N 37°48' W 122°19'0 0.0
2017-Dec-11 06:59N 37°48' W 122°19'0 0.0
2017-Dec-11 06:28N 37°48' W 122°19'0 0.0
2017-Dec-11 05:58N 37°48' W 122°19'0 0.0
2017-Dec-11 05:28N 37°48' W 122°19'0 0.0
2017-Dec-11 04:59N 37°48' W 122°19'0 0.0
2017-Dec-11 04:28N 37°48' W 122°19'0 0.0
2017-Dec-11 03:58N 37°48' W 122°19'0 0.0
2017-Dec-11 03:29N 37°48' W 122°19'0 0.0
2017-Dec-11 02:59N 37°48' W 122°19'0 0.0
2017-Dec-11 02:28N 37°48' W 122°19'0 0.0
2017-Dec-11 01:59N 37°48' W 122°19'0 0.0
2017-Dec-11 01:28N 37°48' W 122°19'0 0.0
2017-Dec-11 00:59N 37°48' W 122°19'0 0.0
2017-Dec-11 00:28N 37°48' W 122°19'0 0.0
2017-Dec-10 23:58N 37°48' W 122°19'0 0.0
2017-Dec-10 23:28N 37°48' W 122°19'0 0.0
2017-Dec-10 22:58N 37°48' W 122°19'0 0.0
2017-Dec-10 22:28N 37°48' W 122°19'0 0.0
2017-Dec-10 21:58N 37°48' W 122°19'0 0.0
2017-Dec-10 21:28N 37°48' W 122°19'0 0.0
2017-Dec-10 20:58N 37°48' W 122°19'0 0.0
2017-Dec-10 20:28N 37°48' W 122°19'0 0.0
2017-Dec-10 19:55N 37°48' W 122°19'0 0.0
2017-Dec-10 19:28N 37°48' W 122°19'0 0.0
2017-Dec-10 18:58N 37°48' W 122°19'0 0.0
2017-Dec-10 18:28N 37°48' W 122°19'0 0.0
2017-Dec-10 17:58N 37°48' W 122°19'0 0.0
2017-Dec-10 17:28N 37°48' W 122°19'0 0.0
2017-Dec-10 16:58N 37°48' W 122°19'0 0.0
2017-Dec-10 16:29N 37°48' W 122°19'0 0.0
2017-Dec-10 15:58N 37°48' W 122°19'0 0.4
2017-Dec-10 15:30N 37°48' W 122°19'3 5.3
2017-Dec-10 15:01N 37°47' W 122°22'3 5.0
2017-Dec-10 14:31N 37°49' W 122°24'612.0
2017-Dec-10 14:01N 37°48' W 122°32'5 9.3
2017-Dec-10 13:30N 37°46' W 122°37'4 8.7
2017-Dec-10 13:00N 37°44' W 122°42'510.1
2017-Dec-10 12:30N 37°39' W 122°40'611.1
2017-Dec-10 12:01N 37°33' W 122°40'611.1
2017-Dec-10 11:30N 37°28' W 122°40'611.1
2017-Dec-10 11:00N 37°22' W 122°40'611.2
2017-Dec-10 10:30N 37°17' W 122°40'3 6.8
2017-Dec-10 10:01N 37°13' W 122°39'817.0
2017-Dec-10 09:31N 37°05' W 122°36'1019.2
2017-Dec-10 09:00N 36°56' W 122°32'1019.7
2017-Dec-10 08:30N 36°47' W 122°27'1019.3
2017-Dec-10 08:00N 36°38' W 122°23'1019.6
2017-Dec-10 07:30N 36°29' W 122°18'1019.2
2017-Dec-10 07:00N 36°20' W 122°14'1019.4
2017-Dec-10 06:30N 36°11' W 122°09'1019.3
2017-Dec-10 06:00N 36°02' W 122°04'1019.3
2017-Dec-10 05:30N 35°53' W 121°60'1019.4
2017-Dec-10 05:00N 35°44' W 121°56'1019.5
2017-Dec-10 04:30N 35°35' W 121°51'1019.1
2017-Dec-10 04:00N 35°26' W 121°46'1019.1
2017-Dec-10 03:30N 35°18' W 121°42'1119.3
2017-Dec-10 02:58N 35°08' W 121°37'1019.5
2017-Dec-10 02:26N 34°58' W 121°32'1419.2
2017-Dec-10 01:44N 34°46' W 121°26'419.4
2017-Dec-10 01:30N 34°42' W 121°24'1019.2
2017-Dec-10 01:00N 34°33' W 121°20'1019.6
2017-Dec-10 00:30N 34°24' W 121°15'1019.4
2017-Dec-10 00:00N 34°15' W 121°10'1019.6
2017-Dec-09 23:30N 34°06' W 121°05'918.6
2017-Dec-09 23:01N 33°59' W 120°58'1019.4
2017-Dec-09 22:31N 33°54' W 120°49'1019.5
2017-Dec-09 22:00N 33°48' W 120°39'919.4
2017-Dec-09 21:31N 33°43' W 120°29'1119.3
2017-Dec-09 20:58N 33°39' W 120°17'1019.8
2017-Dec-09 20:28N 33°39' W 120°06'920.5
2017-Dec-09 20:01N 33°39' W 119°54'1020.1
2017-Dec-09 19:31N 33°39' W 119°42'1020.3
2017-Dec-09 19:00N 33°40' W 119°30'1020.6
2017-Dec-09 18:30N 33°40' W 119°18'1019.2
2017-Dec-09 18:00N 33°41' W 119°06'611.7
2017-Dec-09 17:30N 33°41' W 118°59'611.5
2017-Dec-09 16:57N 33°40' W 118°52'511.4
2017-Dec-09 16:30N 33°40' W 118°46'611.5
2017-Dec-09 16:00N 33°39' W 118°39'611.4
2017-Dec-09 15:30N 33°39' W 118°32'611.3
2017-Dec-09 15:01N 33°39' W 118°25'611.6
2017-Dec-09 14:30N 33°38' W 118°18'5 9.3
2017-Dec-09 14:00N 33°42' W 118°15'3 5.5
2017-Dec-09 13:27N 33°45' W 118°16'0 0.2
2017-Dec-09 11:25N 33°45' W 118°17'0 0.0
2017-Dec-09 10:49N 33°45' W 118°17'  
Track history (hours):
 
Tides and Currents Weather Stations Pressure Air Temp Water Temp Dewpoint Dewpoint Depression Visibility Wind Speed Wind Dir Waves Ship Positions

YM Masculinity

Last reported at 2017-Dec-11 20:28 UTC. Time now 2017-Dec-15 04:33 UTC.
Position N 38°37' W 124°13'.

Length 306 m; draft 10.8 m.

Type: Ship (hazmat cat A). MMSI: 636015183.

Date/timePositionNaut miles runAvg speedWind from/ knotsBaromVisibWave heightAir tempDewpointWater temp
2017-Dec-11 20:28N 38°37' W 124°13'817.7
2017-Dec-11 20:00N 38°32' W 124°05'917.6
2017-Dec-11 19:30N 38°27' W 123°55'917.7
2017-Dec-11 19:00N 38°23' W 123°45'917.5
2017-Dec-11 18:30N 38°18' W 123°36'612.3
2017-Dec-11 18:00N 38°14' W 123°30'611.6
2017-Dec-11 17:30N 38°11' W 123°24'713.5
2017-Dec-11 17:00N 38°07' W 123°17'714.0
2017-Dec-11 16:30N 38°01' W 123°12'713.9
2017-Dec-11 16:00N 37°57' W 123°05'713.9
2017-Dec-11 15:30N 37°53' W 122°57'714.2
2017-Dec-11 15:00N 37°50' W 122°49'713.8
2017-Dec-11 14:30N 37°46' W 122°42'611.8
2017-Dec-11 14:00N 37°47' W 122°34'713.5
2017-Dec-11 13:31N 37°50' W 122°27'5 9.1
2017-Dec-11 13:01N 37°48' W 122°22'3 5.5
2017-Dec-11 12:31N 37°48' W 122°19'1 2.1
2017-Dec-11 12:01N 37°48' W 122°17'1 1.8
2017-Dec-11 11:31N 37°48' W 122°18'0 0.8
2017-Dec-11 10:58N 37°48' W 122°19'0 0.0
2017-Dec-11 10:28N 37°48' W 122°19'0 0.0
2017-Dec-11 09:59N 37°48' W 122°19'0 0.0
2017-Dec-11 09:28N 37°48' W 122°19'0 0.0
2017-Dec-11 08:58N 37°48' W 122°19'0 0.0
2017-Dec-11 08:28N 37°48' W 122°19'0 0.0
2017-Dec-11 07:58N 37°48' W 122°19'0 0.0
2017-Dec-11 07:28N 37°48' W 122°19'0 0.0
2017-Dec-11 06:59N 37°48' W 122°19'0 0.0
2017-Dec-11 06:28N 37°48' W 122°19'0 0.0
2017-Dec-11 05:58N 37°48' W 122°19'0 0.0
2017-Dec-11 05:28N 37°48' W 122°19'0 0.0
2017-Dec-11 04:59N 37°48' W 122°19'0 0.0
2017-Dec-11 04:28N 37°48' W 122°19'0 0.0
2017-Dec-11 03:58N 37°48' W 122°19'0 0.0
2017-Dec-11 03:29N 37°48' W 122°19'0 0.0
2017-Dec-11 02:59N 37°48' W 122°19'0 0.0
2017-Dec-11 02:28N 37°48' W 122°19'0 0.0
2017-Dec-11 01:59N 37°48' W 122°19'0 0.0
2017-Dec-11 01:28N 37°48' W 122°19'0 0.0
2017-Dec-11 00:59N 37°48' W 122°19'0 0.0
2017-Dec-11 00:28N 37°48' W 122°19'0 0.0
2017-Dec-10 23:58N 37°48' W 122°19'0 0.0
2017-Dec-10 23:28N 37°48' W 122°19'0 0.0
2017-Dec-10 22:58N 37°48' W 122°19'0 0.0
2017-Dec-10 22:28N 37°48' W 122°19'0 0.0
2017-Dec-10 21:58N 37°48' W 122°19'0 0.0
2017-Dec-10 21:28N 37°48' W 122°19'0 0.0
2017-Dec-10 20:58N 37°48' W 122°19'0 0.0
2017-Dec-10 20:28N 37°48' W 122°19'0 0.0
2017-Dec-10 19:55N 37°48' W 122°19'0 0.0
2017-Dec-10 19:28N 37°48' W 122°19'0 0.0
2017-Dec-10 18:58N 37°48' W 122°19'0 0.0
2017-Dec-10 18:28N 37°48' W 122°19'0 0.0
2017-Dec-10 17:58N 37°48' W 122°19'0 0.0
2017-Dec-10 17:28N 37°48' W 122°19'0 0.0
2017-Dec-10 16:58N 37°48' W 122°19'0 0.0
2017-Dec-10 16:29N 37°48' W 122°19'0 0.0
2017-Dec-10 15:58N 37°48' W 122°19'0 0.4
2017-Dec-10 15:30N 37°48' W 122°19'3 5.3
2017-Dec-10 15:01N 37°47' W 122°22'3 5.0
2017-Dec-10 14:31N 37°49' W 122°24'612.0
2017-Dec-10 14:01N 37°48' W 122°32'5 9.3
2017-Dec-10 13:30N 37°46' W 122°37'4 8.7
2017-Dec-10 13:00N 37°44' W 122°42'510.1
2017-Dec-10 12:30N 37°39' W 122°40'611.1
2017-Dec-10 12:01N 37°33' W 122°40'611.1
2017-Dec-10 11:30N 37°28' W 122°40'611.1
2017-Dec-10 11:00N 37°22' W 122°40'611.2
2017-Dec-10 10:30N 37°17' W 122°40'3 6.8
2017-Dec-10 10:01N 37°13' W 122°39'817.0
2017-Dec-10 09:31N 37°05' W 122°36'1019.2
2017-Dec-10 09:00N 36°56' W 122°32'1019.7
2017-Dec-10 08:30N 36°47' W 122°27'1019.3
2017-Dec-10 08:00N 36°38' W 122°23'1019.6
2017-Dec-10 07:30N 36°29' W 122°18'1019.2
2017-Dec-10 07:00N 36°20' W 122°14'1019.4
2017-Dec-10 06:30N 36°11' W 122°09'1019.3
2017-Dec-10 06:00N 36°02' W 122°04'1019.3
2017-Dec-10 05:30N 35°53' W 121°60'1019.4
2017-Dec-10 05:00N 35°44' W 121°56'1019.5
2017-Dec-10 04:30N 35°35' W 121°51'1019.1
2017-Dec-10 04:00N 35°26' W 121°46'1019.1
2017-Dec-10 03:30N 35°18' W 121°42'1119.3
2017-Dec-10 02:58N 35°08' W 121°37'1019.5
2017-Dec-10 02:26N 34°58' W 121°32'1419.2
2017-Dec-10 01:44N 34°46' W 121°26'419.4
2017-Dec-10 01:30N 34°42' W 121°24'1019.2
2017-Dec-10 01:00N 34°33' W 121°20'1019.6
2017-Dec-10 00:30N 34°24' W 121°15'1019.4
2017-Dec-10 00:00N 34°15' W 121°10'1019.6
2017-Dec-09 23:30N 34°06' W 121°05'918.6
2017-Dec-09 23:01N 33°59' W 120°58'1019.4
2017-Dec-09 22:31N 33°54' W 120°49'1019.5
2017-Dec-09 22:00N 33°48' W 120°39'919.4
2017-Dec-09 21:31N 33°43' W 120°29'1119.3
2017-Dec-09 20:58N 33°39' W 120°17'1019.8
2017-Dec-09 20:28N 33°39' W 120°06'920.5
2017-Dec-09 20:01N 33°39' W 119°54'1020.1
2017-Dec-09 19:31N 33°39' W 119°42'1020.3
2017-Dec-09 19:00N 33°40' W 119°30'1020.6
2017-Dec-09 18:30N 33°40' W 119°18'1019.2
2017-Dec-09 18:00N 33°41' W 119°06'611.7
2017-Dec-09 17:30N 33°41' W 118°59'611.5
2017-Dec-09 16:57N 33°40' W 118°52'511.4
2017-Dec-09 16:30N 33°40' W 118°46'611.5
2017-Dec-09 16:00N 33°39' W 118°39'611.4
2017-Dec-09 15:30N 33°39' W 118°32'611.3
2017-Dec-09 15:01N 33°39' W 118°25'611.6
2017-Dec-09 14:30N 33°38' W 118°18'5 9.3
2017-Dec-09 14:00N 33°42' W 118°15'3 5.5
2017-Dec-09 13:27N 33°45' W 118°16'0 0.2
2017-Dec-09 11:25N 33°45' W 118°17'0 0.0
2017-Dec-09 10:49N 33°45' W 118°17'  

Dump ship's entire track history